sensor_id;sensor_type;location;lat;lon;timestamp;pressure;altitude;pressure_sealevel;temperature;humidity
6028;BME280;3042;43.194;27.646;2023-05-29T00:01:38;101176.56;;;24.96;100.00
6028;BME280;3042;43.194;27.646;2023-05-29T00:04:06;101172.06;;;25.04;100.00
6028;BME280;3042;43.194;27.646;2023-05-29T00:06:34;101172.06;;;25.08;100.00
6028;BME280;3042;43.194;27.646;2023-05-29T00:09:02;101163.22;;;25.10;100.00
6028;BME280;3042;43.194;27.646;2023-05-29T00:11:29;101162.31;;;25.13;100.00
6028;BME280;3042;43.194;27.646;2023-05-29T00:13:56;101157.03;;;25.13;100.00
6028;BME280;3042;43.194;27.646;2023-05-29T00:16:25;101165.00;;;25.08;100.00
6028;BME280;3042;43.194;27.646;2023-05-29T00:18:52;101169.44;;;25.04;100.00
6028;BME280;3042;43.194;27.646;2023-05-29T00:21:19;101162.50;;;24.88;100.00
6028;BME280;3042;43.194;27.646;2023-05-29T00:23:47;101168.63;;;24.95;100.00
6028;BME280;3042;43.194;27.646;2023-05-29T00:26:14;101171.28;;;24.93;100.00
6028;BME280;3042;43.194;27.646;2023-05-29T00:28:42;101160.69;;;24.96;100.00
6028;BME280;3042;43.194;27.646;2023-05-29T00:31:09;101163.34;;;24.93;100.00
6028;BME280;3042;43.194;27.646;2023-05-29T00:33:38;101171.28;;;24.93;100.00
6028;BME280;3042;43.194;27.646;2023-05-29T00:36:06;101173.09;;;24.88;100.00
6028;BME280;3042;43.194;27.646;2023-05-29T00:38:33;101178.50;;;24.73;100.00
6028;BME280;3042;43.194;27.646;2023-05-29T00:41:00;101175.03;;;24.64;100.00
6028;BME280;3042;43.194;27.646;2023-05-29T00:43:28;101138.19;;;24.37;100.00
6028;BME280;3042;43.194;27.646;2023-05-29T00:45:55;101182.16;;;24.50;100.00
6028;BME280;3042;43.194;27.646;2023-05-29T00:48:23;101179.56;;;24.47;100.00
6028;BME280;3042;43.194;27.646;2023-05-29T00:50:52;101108.44;;;24.04;100.00
6028;BME280;3042;43.194;27.646;2023-05-29T00:53:19;101124.22;;;24.15;100.00
6028;BME280;3042;43.194;27.646;2023-05-29T00:55:47;101171.59;;;24.44;100.00
6028;BME280;3042;43.194;27.646;2023-05-29T00:58:15;101169.81;;;24.46;100.00
6028;BME280;3042;43.194;27.646;2023-05-29T01:00:42;101163.69;;;24.49;100.00
6028;BME280;3042;43.194;27.646;2023-05-29T01:03:12;101167.19;;;24.46;100.00
6028;BME280;3042;43.194;27.646;2023-05-29T01:05:42;101168.13;;;24.42;100.00
6028;BME280;3042;43.194;27.646;2023-05-29T01:08:11;101165.47;;;24.40;100.00
6028;BME280;3042;43.194;27.646;2023-05-29T01:10:38;101165.50;;;24.34;100.00
6028;BME280;3042;43.194;27.646;2023-05-29T01:13:10;101149.63;;;24.42;100.00
6028;BME280;3042;43.194;27.646;2023-05-29T01:15:43;101147.84;;;24.39;100.00
6028;BME280;3042;43.194;27.646;2023-05-29T01:18:24;101108.44;;;24.04;100.00
6028;BME280;3042;43.194;27.646;2023-05-29T01:21:02;101148.81;;;24.23;100.00
6028;BME280;3042;43.194;27.646;2023-05-29T01:23:56;101132.22;;;24.01;100.00
6028;BME280;3042;43.194;27.646;2023-05-29T01:26:50;101143.50;;;24.28;100.00
6028;BME280;3042;43.194;27.646;2023-05-29T01:29:21;101148.84;;;24.18;100.00
6028;BME280;3042;43.194;27.646;2023-05-29T01:31:50;101148.84;;;24.18;100.00
6028;BME280;3042;43.194;27.646;2023-05-29T01:34:18;101072.53;;;23.66;100.00
6028;BME280;3042;43.194;27.646;2023-05-29T01:36:45;101143.66;;;24.03;100.00
6028;BME280;3042;43.194;27.646;2023-05-29T01:39:13;101125.28;;;23.71;100.00
6028;BME280;3042;43.194;27.646;2023-05-29T01:41:41;101140.19;;;23.87;100.00
6028;BME280;3042;43.194;27.646;2023-05-29T01:44:12;101140.25;;;23.76;100.00
6028;BME280;3042;43.194;27.646;2023-05-29T01:46:40;101139.38;;;23.77;100.00
6028;BME280;3042;43.194;27.646;2023-05-29T01:49:09;101066.47;;;23.33;100.00
6028;BME280;3042;43.194;27.646;2023-05-29T01:51:38;101104.22;;;23.58;100.00
6028;BME280;3042;43.194;27.646;2023-05-29T01:54:06;101120.88;;;23.80;100.00
6028;BME280;3042;43.194;27.646;2023-05-29T01:56:34;101134.94;;;23.83;100.00
6028;BME280;3042;43.194;27.646;2023-05-29T01:59:02;101098.06;;;23.61;100.00
6028;BME280;3042;43.194;27.646;2023-05-29T02:01:31;101060.22;;;23.57;100.00
6028;BME280;3042;43.194;27.646;2023-05-29T02:03:58;101121.72;;;23.86;100.00
6028;BME280;3042;43.194;27.646;2023-05-29T02:06:25;101109.41;;;23.85;100.00
6028;BME280;3042;43.194;27.646;2023-05-29T02:08:52;101134.88;;;24.01;100.00
6028;BME280;3042;43.194;27.646;2023-05-29T02:11:20;101139.19;;;24.13;100.00
6028;BME280;3042;43.194;27.646;2023-05-29T02:13:47;101146.28;;;24.01;100.00
6028;BME280;3042;43.194;27.646;2023-05-29T02:16:14;101146.19;;;24.23;100.00
6028;BME280;3042;43.194;27.646;2023-05-29T02:18:44;101135.56;;;24.35;100.00
6028;BME280;3042;43.194;27.646;2023-05-29T02:21:11;101142.66;;;24.22;100.00
6028;BME280;3042;43.194;27.646;2023-05-29T02:23:38;101147.06;;;24.20;100.00
6028;BME280;3042;43.194;27.646;2023-05-29T02:26:05;101140.06;;;24.21;100.00
6028;BME280;3042;43.194;27.646;2023-05-29T02:28:33;101092.69;;;23.89;100.00
6028;BME280;3042;43.194;27.646;2023-05-29T02:31:02;101132.97;;;24.25;100.00
6028;BME280;3042;43.194;27.646;2023-05-29T02:33:29;101137.38;;;24.26;100.00
6028;BME280;3042;43.194;27.646;2023-05-29T02:35:58;101131.19;;;24.33;100.00
6028;BME280;3042;43.194;27.646;2023-05-29T02:38:25;101134.66;;;24.35;100.00
6028;BME280;3042;43.194;27.646;2023-05-29T02:40:52;101135.53;;;24.40;100.00
6028;BME280;3042;43.194;27.646;2023-05-29T02:43:21;101103.03;;;24.27;100.00
6028;BME280;3042;43.194;27.646;2023-05-29T02:45:49;101144.38;;;24.31;100.00
6028;BME280;3042;43.194;27.646;2023-05-29T02:48:16;101146.19;;;24.23;100.00
6028;BME280;3042;43.194;27.646;2023-05-29T02:50:43;101135.56;;;24.34;100.00
6028;BME280;3042;43.194;27.646;2023-05-29T02:53:11;101144.41;;;24.27;100.00
6028;BME280;3042;43.194;27.646;2023-05-29T02:55:38;101156.84;;;24.08;100.00
6028;BME280;3042;43.194;27.646;2023-05-29T02:58:06;101132.19;;;24.07;100.00
6028;BME280;3042;43.194;27.646;2023-05-29T03:00:33;101155.84;;;24.29;100.00
6028;BME280;3042;43.194;27.646;2023-05-29T03:03:00;101156.81;;;24.11;100.00
6028;BME280;3042;43.194;27.646;2023-05-29T03:05:27;101166.53;;;24.04;100.00
6028;BME280;3042;43.194;27.646;2023-05-29T03:07:54;101171.81;;;24.01;100.00
6028;BME280;3042;43.194;27.646;2023-05-29T03:10:23;101155.03;;;24.17;100.00
6028;BME280;3042;43.194;27.646;2023-05-29T03:12:50;101161.22;;;24.16;100.00
6028;BME280;3042;43.194;27.646;2023-05-29T03:15:17;101162.88;;;24.30;100.00
6028;BME280;3042;43.194;27.646;2023-05-29T03:17:45;101165.44;;;24.50;100.00
6028;BME280;3042;43.194;27.646;2023-05-29T03:20:12;101171.56;;;24.53;100.00
6028;BME280;3042;43.194;27.646;2023-05-29T03:22:41;101169.84;;;24.52;100.00
6028;BME280;3042;43.194;27.646;2023-05-29T03:25:09;101160.09;;;24.56;100.00
6028;BME280;3042;43.194;27.646;2023-05-29T03:27:37;101166.25;;;24.61;100.00
6028;BME280;3042;43.194;27.646;2023-05-29T03:30:06;101168.00;;;24.63;100.00
6028;BME280;3042;43.194;27.646;2023-05-29T03:32:33;101173.28;;;24.63;100.00
6028;BME280;3042;43.194;27.646;2023-05-29T03:35:00;101143.28;;;24.68;100.00
6028;BME280;3042;43.194;27.646;2023-05-29T03:37:29;101161.63;;;24.89;100.00
6028;BME280;3042;43.194;27.646;2023-05-29T03:39:56;101178.50;;;24.70;100.00
6028;BME280;3042;43.194;27.646;2023-05-29T03:42:23;101180.28;;;24.71;100.00
6028;BME280;3042;43.194;27.646;2023-05-29T03:44:52;101159.19;;;24.61;100.00
6028;BME280;3042;43.194;27.646;2023-05-29T03:47:19;101194.47;;;24.51;100.00
6028;BME280;3042;43.194;27.646;2023-05-29T03:49:47;101194.44;;;24.62;100.00
6028;BME280;3042;43.194;27.646;2023-05-29T03:52:14;101194.41;;;24.67;100.00
6028;BME280;3042;43.194;27.646;2023-05-29T03:54:41;101191.78;;;24.63;100.00
6028;BME280;3042;43.194;27.646;2023-05-29T03:57:10;101063.63;;;23.90;100.00
6028;BME280;3042;43.194;27.646;2023-05-29T03:59:37;101194.44;;;24.63;100.00
6028;BME280;3042;43.194;27.646;2023-05-29T04:02:06;101188.25;;;24.66;100.00
6028;BME280;3042;43.194;27.646;2023-05-29T04:04:33;101075.81;;;24.14;100.00
6028;BME280;3042;43.194;27.646;2023-05-29T04:07:00;101193.50;;;24.71;100.00
6028;BME280;3042;43.194;27.646;2023-05-29T04:09:27;101188.19;;;24.72;100.00
6028;BME280;3042;43.194;27.646;2023-05-29T04:11:55;101194.38;;;24.73;100.00
6028;BME280;3042;43.194;27.646;2023-05-29T04:14:22;101189.09;;;24.71;100.00
6028;BME280;3042;43.194;27.646;2023-05-29T04:16:49;101186.44;;;24.73;100.00
6028;BME280;3042;43.194;27.646;2023-05-29T04:19:17;101182.06;;;24.69;100.00
6028;BME280;3042;43.194;27.646;2023-05-29T04:21:45;101182.78;;;24.89;100.00
6028;BME280;3042;43.194;27.646;2023-05-29T04:24:13;101169.38;;;25.11;100.00
6028;BME280;3042;43.194;27.646;2023-05-29T04:26:40;101181.69;;;25.18;100.00
6028;BME280;3042;43.194;27.646;2023-05-29T04:29:08;101182.47;;;25.29;100.00
6028;BME280;3042;43.194;27.646;2023-05-29T04:31:38;101184.31;;;25.24;100.00
6028;BME280;3042;43.194;27.646;2023-05-29T04:34:05;101190.50;;;25.20;100.00
6028;BME280;3042;43.194;27.646;2023-05-29T04:36:34;101158.75;;;25.20;100.00
6028;BME280;3042;43.194;27.646;2023-05-29T04:39:03;101110.53;;;24.87;100.00
6028;BME280;3042;43.194;27.646;2023-05-29T04:41:30;101177.88;;;25.46;100.00
6028;BME280;3042;43.194;27.646;2023-05-29T04:43:57;101175.16;;;25.56;100.00
6028;BME280;3042;43.194;27.646;2023-05-29T04:46:25;101175.91;;;25.67;100.00
6028;BME280;3042;43.194;27.646;2023-05-29T04:48:52;101181.97;;;25.77;100.00
6028;BME280;3042;43.194;27.646;2023-05-29T04:51:19;101185.44;;;25.83;100.00
6028;BME280;3042;43.194;27.646;2023-05-29T04:53:49;101205.84;;;25.72;100.00
6028;BME280;3042;43.194;27.646;2023-05-29T04:56:17;101180.44;;;25.57;100.00
6028;BME280;3042;43.194;27.646;2023-05-29T04:58:45;101207.63;;;25.70;100.00
6028;BME280;3042;43.194;27.646;2023-05-29T05:01:12;101210.31;;;25.68;100.00
6028;BME280;3042;43.194;27.646;2023-05-29T05:03:40;101207.72;;;25.64;100.00
6028;BME280;3042;43.194;27.646;2023-05-29T05:06:07;101206.00;;;25.60;100.00
6028;BME280;3042;43.194;27.646;2023-05-29T05:08:34;101205.91;;;25.66;100.00
6028;BME280;3042;43.194;27.646;2023-05-29T05:11:03;101209.50;;;25.62;100.00
6028;BME280;3042;43.194;27.646;2023-05-29T05:13:31;101135.88;;;25.10;100.00
6028;BME280;3042;43.194;27.646;2023-05-29T05:15:58;101206.91;;;25.54;100.00
6028;BME280;3042;43.194;27.646;2023-05-29T05:18:26;101132.28;;;25.17;100.00
6028;BME280;3042;43.194;27.646;2023-05-29T05:20:53;101204.13;;;25.71;100.00
6028;BME280;3042;43.194;27.646;2023-05-29T05:23:20;101211.31;;;25.57;100.00
6028;BME280;3042;43.194;27.646;2023-05-29T05:25:47;101205.03;;;25.68;100.00
6028;BME280;3042;43.194;27.646;2023-05-29T05:28:16;101203.97;;;25.83;100.00
6028;BME280;3042;43.194;27.646;2023-05-29T05:30:43;101198.66;;;25.89;100.00
6028;BME280;3042;43.194;27.646;2023-05-29T05:33:10;101207.72;;;25.64;100.00
6028;BME280;3042;43.194;27.646;2023-05-29T05:35:37;101212.25;;;25.51;100.00
6028;BME280;3042;43.194;27.646;2023-05-29T05:38:05;101167.78;;;24.91;100.00
6028;BME280;3042;43.194;27.646;2023-05-29T05:40:32;101232.97;;;24.98;100.00
6028;BME280;3042;43.194;27.646;2023-05-29T05:43:00;101233.13;;;24.74;100.00
6028;BME280;3042;43.194;27.646;2023-05-29T05:45:28;101234.72;;;24.93;100.00
6028;BME280;3042;43.194;27.646;2023-05-29T05:47:56;101229.41;;;24.99;100.00
6028;BME280;3042;43.194;27.646;2023-05-29T05:50:24;101155.63;;;24.69;100.00
6028;BME280;3042;43.194;27.646;2023-05-29T05:52:51;101229.31;;;25.15;100.00
6028;BME280;3042;43.194;27.646;2023-05-29T05:55:18;101228.31;;;25.30;100.00
6028;BME280;3042;43.194;27.646;2023-05-29T05:57:45;101230.88;;;25.40;100.00
6028;BME280;3042;43.194;27.646;2023-05-29T06:00:13;101208.91;;;25.34;100.00
6028;BME280;3042;43.194;27.646;2023-05-29T06:02:42;101221.91;;;25.57;100.00
6028;BME280;3042;43.194;27.646;2023-05-29T06:05:10;101229.00;;;25.55;100.00
6028;BME280;3042;43.194;27.646;2023-05-29T06:07:37;101218.22;;;25.70;100.00
6028;BME280;3042;43.194;27.646;2023-05-29T06:10:06;101226.03;;;25.82;100.00
6028;BME280;3042;43.194;27.646;2023-05-29T06:12:33;101221.56;;;25.90;100.00
6028;BME280;3042;43.194;27.646;2023-05-29T06:15:01;101228.59;;;25.95;100.00
6028;BME280;3042;43.194;27.646;2023-05-29T06:17:29;101223.22;;;26.01;100.00
6028;BME280;3042;43.194;27.646;2023-05-29T06:19:58;101220.50;;;26.07;100.00
6028;BME280;3042;43.194;27.646;2023-05-29T06:22:25;101223.09;;;26.10;100.00
6028;BME280;3042;43.194;27.646;2023-05-29T06:24:52;101224.78;;;26.17;100.00
6028;BME280;3042;43.194;27.646;2023-05-29T06:27:20;101223.91;;;26.17;100.00
6028;BME280;3042;43.194;27.646;2023-05-29T06:29:49;101213.25;;;26.21;100.00
6028;BME280;3042;43.194;27.646;2023-05-29T06:32:16;101219.41;;;26.22;100.00
6028;BME280;3042;43.194;27.646;2023-05-29T06:34:43;101231.84;;;26.15;100.00
6028;BME280;3042;43.194;27.646;2023-05-29T06:37:11;101230.00;;;26.25;100.00
6028;BME280;3042;43.194;27.646;2023-05-29T06:39:39;101234.66;;;26.03;100.00
6028;BME280;3042;43.194;27.646;2023-05-29T06:42:07;101186.22;;;25.92;100.00
6028;BME280;3042;43.194;27.646;2023-05-29T06:44:35;101215.94;;;26.18;100.00
6028;BME280;3042;43.194;27.646;2023-05-29T06:47:04;101226.50;;;26.21;100.00
6028;BME280;3042;43.194;27.646;2023-05-29T06:49:31;101186.56;;;25.61;100.00
6028;BME280;3042;43.194;27.646;2023-05-29T06:51:58;101228.66;;;25.88;100.00
6028;BME280;3042;43.194;27.646;2023-05-29T06:54:26;101224.16;;;25.94;100.00
6028;BME280;3042;43.194;27.646;2023-05-29T06:56:54;101216.06;;;26.09;100.00
6028;BME280;3042;43.194;27.646;2023-05-29T06:59:22;101216.06;;;26.09;100.00
6028;BME280;3042;43.194;27.646;2023-05-29T07:01:49;101212.44;;;26.16;100.00
6028;BME280;3042;43.194;27.646;2023-05-29T07:04:16;101203.56;;;26.19;100.00
6028;BME280;3042;43.194;27.646;2023-05-29T07:06:43;101212.47;;;26.13;100.00
6028;BME280;3042;43.194;27.646;2023-05-29T07:09:11;101230.19;;;26.08;100.00
6028;BME280;3042;43.194;27.646;2023-05-29T07:11:39;101075.94;;;25.09;100.00
6028;BME280;3042;43.194;27.646;2023-05-29T07:14:06;101221.56;;;25.90;100.00
6028;BME280;3042;43.194;27.646;2023-05-29T07:16:33;101235.69;;;25.93;100.00
6028;BME280;3042;43.194;27.646;2023-05-29T07:19:01;101228.59;;;25.95;100.00
6028;BME280;3042;43.194;27.646;2023-05-29T07:21:37;101255.28;;;25.72;100.00
6028;BME280;3042;43.194;27.646;2023-05-29T07:24:13;101267.66;;;25.68;100.00
6028;BME280;3042;43.194;27.646;2023-05-29T07:26:42;101264.91;;;25.77;100.00
6028;BME280;3042;43.194;27.646;2023-05-29T07:29:09;101261.34;;;25.80;100.00
6028;BME280;3042;43.194;27.646;2023-05-29T07:31:37;101256.91;;;25.86;100.00
6028;BME280;3042;43.194;27.646;2023-05-29T07:34:05;101238.28;;;25.94;100.00
6028;BME280;3042;43.194;27.646;2023-05-29T07:36:35;101247.91;;;26.06;100.00
6028;BME280;3042;43.194;27.646;2023-05-29T07:39:02;101239.09;;;26.04;100.00
6028;BME280;3042;43.194;27.646;2023-05-29T07:41:31;101264.72;;;25.99;100.00
6028;BME280;3042;43.194;27.646;2023-05-29T07:43:59;101271.78;;;26.00;100.00
6028;BME280;3042;43.194;27.646;2023-05-29T07:46:26;101232.22;;;25.81;100.00
6028;BME280;3042;43.194;27.646;2023-05-29T07:48:54;101267.34;;;26.02;100.00
6028;BME280;3042;43.194;27.646;2023-05-29T07:51:21;101278.91;;;25.95;100.00
6028;BME280;3042;43.194;27.646;2023-05-29T07:53:48;101286.91;;;25.85;100.00
6028;BME280;3042;43.194;27.646;2023-05-29T07:56:15;101293.09;;;25.84;100.00
6028;BME280;3042;43.194;27.646;2023-05-29T07:58:42;101294.91;;;25.81;100.00
6028;BME280;3042;43.194;27.646;2023-05-29T08:01:10;101260.16;;;25.17;100.00
6028;BME280;3042;43.194;27.646;2023-05-29T08:03:38;101301.63;;;25.11;100.00
6028;BME280;3042;43.194;27.646;2023-05-29T08:06:05;101314.16;;;24.78;100.00
6028;BME280;3042;43.194;27.646;2023-05-29T08:08:32;101291.28;;;24.68;100.00
6028;BME280;3042;43.194;27.646;2023-05-29T08:10:59;101118.28;;;23.74;100.00
6028;BME280;3042;43.194;27.646;2023-05-29T08:13:26;101307.16;;;24.63;100.00
6028;BME280;3042;43.194;27.646;2023-05-29T08:15:54;101202.66;;;23.94;100.00
6028;BME280;3042;43.194;27.646;2023-05-29T08:18:25;101249.28;;;23.97;100.00
6028;BME280;3042;43.194;27.646;2023-05-29T08:20:53;101240.38;;;24.29;100.00
6028;BME280;3042;43.194;27.646;2023-05-29T08:23:20;101306.34;;;24.55;100.00
6028;BME280;3042;43.194;27.646;2023-05-29T08:25:47;101301.81;;;24.78;100.00
6028;BME280;3042;43.194;27.646;2023-05-29T08:28:14;101302.72;;;24.74;100.00
6028;BME280;3042;43.194;27.646;2023-05-29T08:30:42;101310.66;;;24.76;100.00
6028;BME280;3042;43.194;27.646;2023-05-29T08:33:09;101313.28;;;24.76;100.00
6028;BME280;3042;43.194;27.646;2023-05-29T08:35:38;101300.16;;;24.51;100.00
6028;BME280;3042;43.194;27.646;2023-05-29T08:38:05;101289.59;;;24.51;100.00
6028;BME280;3042;43.194;27.646;2023-05-29T08:40:32;101315.88;;;24.85;100.00
6028;BME280;3042;43.194;27.646;2023-05-29T08:43:02;101315.88;;;24.85;100.00
6028;BME280;3042;43.194;27.646;2023-05-29T08:45:32;101277.22;;;24.70;100.00
6028;BME280;3042;43.194;27.646;2023-05-29T08:48:00;101308.72;;;25.05;100.00
6028;BME280;3042;43.194;27.646;2023-05-29T08:50:29;101306.03;;;25.18;100.00
6028;BME280;3042;43.194;27.646;2023-05-29T08:52:58;101305.03;;;25.34;100.00
6028;BME280;3042;43.194;27.646;2023-05-29T08:55:25;101307.63;;;25.40;100.00
6028;BME280;3042;43.194;27.646;2023-05-29T08:57:53;101304.00;;;25.51;100.00
6028;BME280;3042;43.194;27.646;2023-05-29T09:00:20;101299.53;;;25.56;100.00
6028;BME280;3042;43.194;27.646;2023-05-29T09:02:53;101302.94;;;25.70;100.00
6028;BME280;3042;43.194;27.646;2023-05-29T09:05:20;101300.19;;;25.81;100.00
6028;BME280;3042;43.194;27.646;2023-05-29T09:07:48;101298.38;;;25.84;100.00
6028;BME280;3042;43.194;27.646;2023-05-29T09:19:50;101283.34;;;26.68;100.00
6028;BME280;3042;43.194;27.646;2023-05-29T09:22:17;101279.81;;;26.66;100.00
6028;BME280;3042;43.194;27.646;2023-05-29T09:24:47;101240.56;;;26.26;100.00
6028;BME280;3042;43.194;27.646;2023-05-29T09:27:17;101264.63;;;26.78;100.00
6028;BME280;3042;43.194;27.646;2023-05-29T09:29:45;101257.41;;;26.89;100.00
6028;BME280;3042;43.194;27.646;2023-05-29T09:32:14;101257.34;;;26.92;100.00
6028;BME280;3042;43.194;27.646;2023-05-29T09:34:42;101255.25;;;27.14;100.00
6028;BME280;3042;43.194;27.646;2023-05-29T09:37:11;101250.50;;;27.36;100.00
6028;BME280;3042;43.194;27.646;2023-05-29T09:39:45;101241.06;;;27.16;100.00
6028;BME280;3042;43.194;27.646;2023-05-29T09:42:13;101219.56;;;27.35;100.00
6028;BME280;3042;43.194;27.646;2023-05-29T09:44:40;101236.38;;;27.82;100.00
6028;BME280;3042;43.194;27.646;2023-05-29T09:47:08;101231.53;;;28.06;100.00
6028;BME280;3042;43.194;27.646;2023-05-29T09:49:40;101232.84;;;28.27;100.00
6028;BME280;3042;43.194;27.646;2023-05-29T09:52:08;101241.63;;;28.30;100.00
6028;BME280;3042;43.194;27.646;2023-05-29T09:54:36;101240.59;;;28.37;100.00
6028;BME280;3042;43.194;27.646;2023-05-29T09:57:05;101239.81;;;28.32;100.00
6028;BME280;3042;43.194;27.646;2023-05-29T09:59:33;101239.34;;;28.12;100.00
6028;BME280;3042;43.194;27.646;2023-05-29T10:02:05;101192.41;;;28.12;100.00
6028;BME280;3042;43.194;27.646;2023-05-29T10:04:33;101229.53;;;28.59;100.00
6028;BME280;3042;43.194;27.646;2023-05-29T10:07:05;101238.81;;;28.80;100.00
6028;BME280;3042;43.194;27.646;2023-05-29T10:09:41;101230.53;;;28.91;100.00
6028;BME280;3042;43.194;27.646;2023-05-29T10:12:11;101197.16;;;29.15;100.00
6028;BME280;3042;43.194;27.646;2023-05-29T10:14:40;101229.91;;;29.18;100.00
6028;BME280;3042;43.194;27.646;2023-05-29T10:17:10;101226.03;;;29.32;100.00
6028;BME280;3042;43.194;27.646;2023-05-29T10:19:39;101221.66;;;29.29;100.00
6028;BME280;3042;43.194;27.646;2023-05-29T10:22:08;101228.31;;;29.11;100.00
6028;BME280;3042;43.194;27.646;2023-05-29T10:24:38;101211.19;;;29.54;100.00
6028;BME280;3042;43.194;27.646;2023-05-29T10:27:07;101228.06;;;29.20;100.00
6028;BME280;3042;43.194;27.646;2023-05-29T10:29:37;101215.53;;;29.25;100.00
6028;BME280;3042;43.194;27.646;2023-05-29T10:32:18;101235.13;;;28.84;100.00
6028;BME280;3042;43.194;27.646;2023-05-29T10:34:50;101234.34;;;28.80;100.00
6028;BME280;3042;43.194;27.646;2023-05-29T10:37:31;101234.03;;;28.55;100.00
6028;BME280;3042;43.194;27.646;2023-05-29T10:40:08;101203.19;;;28.47;100.00
6028;BME280;3042;43.194;27.646;2023-05-29T10:42:41;101225.38;;;28.85;100.00
6028;BME280;3042;43.194;27.646;2023-05-29T10:45:09;101232.44;;;28.86;100.00
6028;BME280;3042;43.194;27.646;2023-05-29T10:47:37;101198.00;;;28.40;100.00
6028;BME280;3042;43.194;27.646;2023-05-29T10:50:05;101242.66;;;28.23;100.00
6028;BME280;3042;43.194;27.646;2023-05-29T10:52:33;101235.69;;;28.19;100.00
6028;BME280;3042;43.194;27.646;2023-05-29T10:55:01;101230.84;;;27.94;100.00
6028;BME280;3042;43.194;27.646;2023-05-29T10:57:33;101232.72;;;27.89;100.00
6028;BME280;3042;43.194;27.646;2023-05-29T11:00:04;101182.66;;;27.68;100.00
6028;BME280;3042;43.194;27.646;2023-05-29T11:02:39;101228.63;;;27.22;100.00
6028;BME280;3042;43.194;27.646;2023-05-29T11:05:20;101208.53;;;27.56;100.00
6028;BME280;3042;43.194;27.646;2023-05-29T11:07:52;101196.72;;;27.25;100.00
6028;BME280;3042;43.194;27.646;2023-05-29T11:10:44;101219.75;;;27.23;100.00
6028;BME280;3042;43.194;27.646;2023-05-29T11:13:33;101200.56;;;27.05;100.00
6028;BME280;3042;43.194;27.646;2023-05-29T11:16:12;101225.13;;;27.16;100.00
6028;BME280;3042;43.194;27.646;2023-05-29T11:18:44;101226.28;;;27.00;100.00
6028;BME280;3042;43.194;27.646;2023-05-29T11:21:33;101218.13;;;27.12;100.00
6028;BME280;3042;43.194;27.646;2023-05-29T11:24:02;101093.34;;;26.07;100.00
6028;BME280;3042;43.194;27.646;2023-05-29T11:26:30;101185.28;;;26.64;100.00
6028;BME280;3042;43.194;27.646;2023-05-29T11:29:01;101030.69;;;26.06;100.00
6028;BME280;3042;43.194;27.646;2023-05-29T11:31:32;101218.03;;;27.20;100.00
6028;BME280;3042;43.194;27.646;2023-05-29T11:34:03;101233.59;;;26.86;100.00
6028;BME280;3042;43.194;27.646;2023-05-29T11:36:32;101231.50;;;26.43;100.00
6028;BME280;3042;43.194;27.646;2023-05-29T11:39:00;101235.25;;;26.28;100.00
6028;BME280;3042;43.194;27.646;2023-05-29T11:41:29;101245.09;;;26.17;100.00
6028;BME280;3042;43.194;27.646;2023-05-29T11:43:57;101243.31;;;26.20;100.00
6028;BME280;3042;43.194;27.646;2023-05-29T11:46:26;101186.00;;;26.13;100.00
6028;BME280;3042;43.194;27.646;2023-05-29T11:48:56;101137.75;;;25.86;100.00
6028;BME280;3042;43.194;27.646;2023-05-29T11:51:23;101236.28;;;26.15;100.00
6028;BME280;3042;43.194;27.646;2023-05-29T11:53:51;101242.50;;;26.10;100.00
6028;BME280;3042;43.194;27.646;2023-05-29T11:56:23;101227.63;;;26.02;100.00
6028;BME280;3042;43.194;27.646;2023-05-29T11:58:51;101228.38;;;26.13;100.00
6028;BME280;3042;43.194;27.646;2023-05-29T12:01:21;101109.09;;;25.46;100.00
6028;BME280;3042;43.194;27.646;2023-05-29T12:03:50;101228.53;;;25.98;100.00
6028;BME280;3042;43.194;27.646;2023-05-29T12:06:30;101216.94;;;26.09;100.00
6028;BME280;3042;43.194;27.646;2023-05-29T12:08:58;101212.38;;;26.22;100.00
6028;BME280;3042;43.194;27.646;2023-05-29T12:11:26;101135.34;;;25.66;100.00
6028;BME280;3042;43.194;27.646;2023-05-29T12:13:57;101207.03;;;26.25;100.00
6028;BME280;3042;43.194;27.646;2023-05-29T12:16:27;101212.50;;;26.10;100.00
6028;BME280;3042;43.194;27.646;2023-05-29T12:18:57;101204.38;;;26.25;100.00
6028;BME280;3042;43.194;27.646;2023-05-29T12:21:24;101185.44;;;25.82;100.00
6028;BME280;3042;43.194;27.646;2023-05-29T12:23:52;101222.69;;;25.66;100.00
6028;BME280;3042;43.194;27.646;2023-05-29T12:26:22;101199.06;;;25.46;100.00
6028;BME280;3042;43.194;27.646;2023-05-29T12:28:50;101213.88;;;25.63;100.00
6028;BME280;3042;43.194;27.646;2023-05-29T12:31:26;101208.53;;;25.69;100.00
6028;BME280;3042;43.194;27.646;2023-05-29T12:34:00;101173.22;;;25.70;100.00
6028;BME280;3042;43.194;27.646;2023-05-29T12:36:27;101200.47;;;25.81;100.00
6028;BME280;3042;43.194;27.646;2023-05-29T12:38:56;101196.03;;;25.83;100.00
6028;BME280;3042;43.194;27.646;2023-05-29T12:41:28;101181.56;;;26.12;100.00
6028;BME280;3042;43.194;27.646;2023-05-29T12:43:57;101196.81;;;25.92;100.00
6028;BME280;3042;43.194;27.646;2023-05-29T12:46:25;101179.88;;;26.06;100.00
6028;BME280;3042;43.194;27.646;2023-05-29T12:48:53;101184.31;;;26.06;100.00
6028;BME280;3042;43.194;27.646;2023-05-29T12:51:26;101151.94;;;25.81;100.00
6028;BME280;3042;43.194;27.646;2023-05-29T12:53:54;101156.13;;;25.99;100.00
6028;BME280;3042;43.194;27.646;2023-05-29T12:56:23;101179.91;;;26.03;100.00
6028;BME280;3042;43.194;27.646;2023-05-29T12:58:52;101083.03;;;25.05;100.00
6028;BME280;3042;43.194;27.646;2023-05-29T13:01:19;101186.72;;;25.45;100.00
6028;BME280;3042;43.194;27.646;2023-05-29T13:03:46;101186.81;;;25.36;100.00
6028;BME280;3042;43.194;27.646;2023-05-29T13:06:13;101087.00;;;24.55;100.00
6028;BME280;3042;43.194;27.646;2023-05-29T13:08:42;101181.84;;;24.93;100.00